createdAt,value
2023-03-02T00:00:56.603Z,509.8
2023-03-02T00:01:58.577Z,510.1
2023-03-02T00:03:00.896Z,510
2023-03-02T00:04:03.253Z,509.7
2023-03-02T00:05:05.119Z,509.9
2023-03-02T00:06:07.231Z,509.8
2023-03-02T00:07:09.168Z,509.7
2023-03-02T00:08:10.998Z,510
2023-03-02T00:09:12.766Z,509.9
2023-03-02T00:10:14.713Z,510
2023-03-02T00:11:16.460Z,510.3
2023-03-02T00:12:18.400Z,509.8
2023-03-02T00:13:20.255Z,510
2023-03-02T00:14:22.227Z,510.3
2023-03-02T00:15:24.168Z,510.4
2023-03-02T00:16:26.408Z,510.5
2023-03-02T00:17:28.472Z,510.5
2023-03-02T00:18:30.264Z,510.4
2023-03-02T00:19:31.997Z,510.5
2023-03-02T00:20:33.718Z,510.9
2023-03-02T00:21:35.729Z,510.7
2023-03-02T00:22:37.547Z,510.8
2023-03-02T00:23:39.490Z,511.2
2023-03-02T00:24:41.424Z,511.2
2023-03-02T00:25:43.917Z,511.2
2023-03-02T00:26:45.769Z,511.3
2023-03-02T00:27:47.705Z,511.2
2023-03-02T00:28:49.545Z,511.3
2023-03-02T00:29:51.356Z,511.1
2023-03-02T00:30:53.240Z,511
2023-03-02T00:31:56.050Z,511.1
2023-03-02T00:32:57.956Z,511.3
2023-03-02T00:33:59.803Z,511.2
2023-03-02T00:35:01.669Z,511.9
2023-03-02T00:36:04.057Z,512.2
2023-03-02T00:37:06.015Z,512.3
2023-03-02T00:38:07.940Z,512.5
2023-03-02T00:39:09.885Z,512.4
2023-03-02T00:40:11.628Z,512.8
2023-03-02T00:41:13.583Z,512.8
2023-03-02T00:42:15.424Z,512.9
2023-03-02T00:43:17.273Z,513
2023-03-02T00:44:19.156Z,512.8
2023-03-02T00:45:20.987Z,513.3
2023-03-02T00:46:23.429Z,513.5
2023-03-02T00:47:25.305Z,513.7
2023-03-02T00:48:27.147Z,513.6
2023-03-02T00:49:28.907Z,514.1
2023-03-02T00:50:30.738Z,513.9
2023-03-02T00:51:32.597Z,514
2023-03-02T00:52:34.703Z,514.3
2023-03-02T00:53:36.695Z,514.3
2023-03-02T00:54:38.579Z,514.4
2023-03-02T00:55:40.403Z,514.5
2023-03-02T00:56:42.359Z,514.7
2023-03-02T00:57:44.206Z,514.7
2023-03-02T00:58:46.172Z,514.5
2023-03-02T00:59:48.013Z,514.5
2023-03-02T01:00:49.759Z,514.5
2023-03-02T01:01:51.820Z,514.8
2023-03-02T01:02:54.241Z,514.7
2023-03-02T01:03:56.152Z,514.8
2023-03-02T01:04:57.995Z,515.1
2023-03-02T01:05:59.821Z,515.1
2023-03-02T01:07:01.780Z,515
2023-03-02T01:08:03.661Z,515.1
2023-03-02T01:09:05.398Z,515.1
2023-03-02T01:10:07.242Z,515.5
2023-03-02T01:11:09.176Z,515.6
2023-03-02T01:12:11.043Z,515.8
2023-03-02T01:13:12.988Z,515.7
2023-03-02T01:14:14.864Z,515.9
2023-03-02T01:15:16.697Z,516.4
2023-03-02T01:16:18.911Z,516
2023-03-02T01:17:20.893Z,516.1
2023-03-02T01:18:22.742Z,516.1
2023-03-02T01:19:24.693Z,516.2
2023-03-02T01:20:26.550Z,516.2
2023-03-02T01:21:28.400Z,516.1
2023-03-02T01:22:30.254Z,516.5
2023-03-02T01:23:32.344Z,516.3
2023-03-02T01:24:34.256Z,516.4
2023-03-02T01:25:36.218Z,516.1
2023-03-02T01:26:38.074Z,515.9
2023-03-02T01:27:40.425Z,516
2023-03-02T01:28:42.283Z,515.8
2023-03-02T01:29:44.133Z,516
2023-03-02T01:30:46.290Z,515.9
2023-03-02T01:31:48.693Z,515.8
2023-03-02T01:32:50.703Z,516.1
2023-03-02T01:33:52.518Z,516.3
2023-03-02T01:34:54.238Z,516
2023-03-02T01:35:56.310Z,516.2
2023-03-02T01:36:58.313Z,516.4
2023-03-02T01:38:00.145Z,516.4
2023-03-02T01:39:02.228Z,516.9
2023-03-02T01:40:04.058Z,516.8
2023-03-02T01:41:05.864Z,516.9
2023-03-02T01:42:07.760Z,517.2
2023-03-02T01:43:09.576Z,517.8
2023-03-02T01:44:11.572Z,517.3
2023-03-02T01:45:13.938Z,517.4
2023-03-02T01:46:16.080Z,517.3
2023-03-02T01:47:17.874Z,517.1
2023-03-02T01:48:19.973Z,517.1
2023-03-02T01:49:21.953Z,517.1
2023-03-02T01:50:23.795Z,517.6
2023-03-02T01:51:25.742Z,517.6
2023-03-02T01:52:27.593Z,517.6
2023-03-02T01:53:29.454Z,518.3
2023-03-02T01:54:31.404Z,517.6
2023-03-02T01:55:33.251Z,517.7
2023-03-02T01:56:35.506Z,517.5
2023-03-02T01:57:37.228Z,517.6
2023-03-02T01:58:39.210Z,517.6
2023-03-02T01:59:40.980Z,517.6
2023-03-02T02:00:43.040Z,518.1
2023-03-02T02:01:44.947Z,517.9
2023-03-02T02:02:46.813Z,518.1
2023-03-02T02:03:48.652Z,518.2
2023-03-02T02:04:50.498Z,517.8
2023-03-02T02:05:52.475Z,518
2023-03-02T02:06:54.427Z,517.7
2023-03-02T02:07:56.366Z,517.7
2023-03-02T02:08:58.328Z,517.7
2023-03-02T02:10:00.396Z,517.8
2023-03-02T02:11:02.229Z,517.4
2023-03-02T02:12:04.067Z,517.6
2023-03-02T02:13:05.933Z,517.3
2023-03-02T02:14:07.870Z,517.2
2023-03-02T02:15:09.726Z,517.2
2023-03-02T02:16:11.738Z,517.4
2023-03-02T02:17:13.640Z,517.3
2023-03-02T02:18:15.472Z,517.1
2023-03-02T02:19:17.952Z,517.1
2023-03-02T02:20:20.210Z,516.9
2023-03-02T02:21:22.063Z,516.4
2023-03-02T02:22:23.991Z,516.4
2023-03-02T02:23:25.864Z,516.3
2023-03-02T02:24:27.698Z,516.2
2023-03-02T02:25:29.703Z,516.6
2023-03-02T02:26:33.330Z,516.8
2023-03-02T02:27:35.310Z,516.8
2023-03-02T02:28:37.246Z,517.2
2023-03-02T02:29:39.105Z,517.2
2023-03-02T02:30:40.949Z,517.5
2023-03-02T02:31:43.092Z,517.3
2023-03-02T02:32:45.184Z,517.1
2023-03-02T02:33:47.005Z,517.3
2023-03-02T02:34:49.040Z,517.6
2023-03-02T02:35:50.986Z,517.8
2023-03-02T02:36:52.806Z,517.9
2023-03-02T02:37:54.730Z,518
2023-03-02T02:38:56.537Z,517.5
2023-03-02T02:39:58.530Z,517.7
2023-03-02T02:41:00.503Z,517.4
2023-03-02T02:42:02.429Z,517.6
2023-03-02T02:43:04.430Z,517.4
2023-03-02T02:44:06.255Z,517.6
2023-03-02T02:45:08.019Z,517.4
2023-03-02T02:46:10.333Z,517.5
2023-03-02T02:47:12.185Z,517.3
2023-03-02T02:48:13.862Z,517.2
2023-03-02T02:49:15.707Z,517.3
2023-03-02T02:50:17.647Z,517.5
2023-03-02T02:51:19.596Z,517.9
2023-03-02T02:52:21.331Z,517.8
2023-03-02T02:53:23.194Z,517.4
2023-03-02T02:54:25.166Z,517.9
2023-03-02T02:55:27.004Z,517.7
2023-03-02T02:56:28.871Z,518
2023-03-02T02:57:30.680Z,518
2023-03-02T02:58:32.442Z,518.2
2023-03-02T02:59:34.283Z,518.3
2023-03-02T03:00:36.038Z,518.2
2023-03-02T03:01:38.329Z,518.3
2023-03-02T03:02:40.152Z,518.4
2023-03-02T03:03:41.972Z,518.5
2023-03-02T03:04:44.300Z,518.6
2023-03-02T03:05:46.220Z,518.6
2023-03-02T03:06:47.974Z,518.8
2023-03-02T03:07:49.807Z,519
2023-03-02T03:08:51.667Z,519.2
2023-03-02T03:09:53.713Z,519.2
2023-03-02T03:10:55.567Z,519.3
2023-03-02T03:11:57.429Z,519.1
2023-03-02T03:12:59.239Z,519.1
2023-03-02T03:14:01.196Z,519
2023-03-02T03:15:03.073Z,518.7
2023-03-02T03:16:04.909Z,518.8
2023-03-02T03:17:07.003Z,518.9
2023-03-02T03:18:08.867Z,519.2
2023-03-02T03:19:10.766Z,519.1
2023-03-02T03:20:12.716Z,519.1
2023-03-02T03:21:14.463Z,518.8
2023-03-02T03:22:16.390Z,519.1
2023-03-02T03:23:18.275Z,518.8
2023-03-02T03:24:20.144Z,518.8
2023-03-02T03:25:22.066Z,518.9
2023-03-02T03:26:24.024Z,519
2023-03-02T03:27:25.991Z,518.9
2023-03-02T03:28:27.830Z,519.3
2023-03-02T03:29:29.798Z,519
2023-03-02T03:30:31.879Z,519.3
2023-03-02T03:31:33.605Z,519
2023-03-02T03:32:35.741Z,519
2023-03-02T03:33:37.594Z,519.2
2023-03-02T03:34:39.538Z,518.8
2023-03-02T03:35:41.727Z,518.8
2023-03-02T03:36:43.666Z,518.8
2023-03-02T03:37:45.607Z,518.7
2023-03-02T03:38:47.440Z,518.7
2023-03-02T03:39:49.314Z,518.7
2023-03-02T03:40:51.159Z,518.7
2023-03-02T03:41:53.090Z,518.8
2023-03-02T03:42:55.079Z,518.9
2023-03-02T03:43:57.000Z,518.8
2023-03-02T03:44:58.846Z,518.5
2023-03-02T03:46:00.956Z,518.5
2023-03-02T03:47:02.968Z,518.6
2023-03-02T03:48:04.911Z,518.7
2023-03-02T03:49:06.771Z,518.7
2023-03-02T03:50:08.615Z,518.9
2023-03-02T03:51:10.465Z,518.9
2023-03-02T03:52:12.418Z,519
2023-03-02T03:53:14.172Z,518.9
2023-03-02T03:54:15.989Z,518.8
2023-03-02T03:55:17.882Z,518.6
2023-03-02T03:56:19.722Z,518.4
2023-03-02T03:57:21.664Z,518.5
2023-03-02T03:58:23.913Z,518.1
2023-03-02T03:59:25.798Z,518.3
2023-03-02T04:00:27.732Z,518.2
2023-03-02T04:01:29.820Z,518.7
2023-03-02T04:02:31.888Z,518.7
2023-03-02T04:03:33.804Z,518.7
2023-03-02T04:04:35.912Z,518.9
2023-03-02T04:05:37.918Z,518.9
2023-03-02T04:06:39.690Z,518.9
2023-03-02T04:07:41.614Z,518.8
2023-03-02T04:08:43.466Z,518.9
2023-03-02T04:09:45.306Z,518.9
2023-03-02T04:10:47.070Z,518.9
2023-03-02T04:11:49.018Z,519
2023-03-02T04:12:50.849Z,519
2023-03-02T04:13:52.996Z,518.9
2023-03-02T04:14:54.976Z,518.6
2023-03-02T04:15:57.040Z,519
2023-03-02T04:16:58.957Z,518.9
2023-03-02T04:18:00.810Z,519
2023-03-02T04:19:02.675Z,518.9
2023-03-02T04:20:04.524Z,518.8
2023-03-02T04:21:07.030Z,519.1
2023-03-02T04:22:09.007Z,519.1
2023-03-02T04:23:10.884Z,519
2023-03-02T04:24:12.734Z,519.3
2023-03-02T04:25:14.698Z,519.1
2023-03-02T04:26:17.160Z,519.3
2023-03-02T04:27:19.545Z,519.2
2023-03-02T04:28:21.474Z,519.7
2023-03-02T04:29:23.338Z,519.7
2023-03-02T04:30:25.174Z,519.9
2023-03-02T04:31:27.409Z,519.8
2023-03-02T04:32:29.675Z,519.9
2023-03-02T04:33:31.536Z,520
2023-03-02T04:34:33.244Z,519.8
2023-03-02T04:35:35.342Z,519.8
2023-03-02T04:36:39.014Z,519.2
2023-03-02T04:37:40.820Z,519.4
2023-03-02T04:38:43.058Z,519
2023-03-02T04:39:44.839Z,518.8
2023-03-02T04:40:46.750Z,519
2023-03-02T04:41:48.602Z,518.9
2023-03-02T04:42:50.446Z,518.5
2023-03-02T04:43:52.272Z,518.5
2023-03-02T04:44:54.182Z,518.6
2023-03-02T04:45:56.115Z,518.8
2023-03-02T04:46:58.583Z,518.8
2023-03-02T04:48:00.430Z,518.5
2023-03-02T04:49:02.386Z,518.5
2023-03-02T04:50:04.228Z,518.3
2023-03-02T04:51:06.031Z,518.1
2023-03-02T04:52:08.328Z,518.5
2023-03-02T04:53:10.181Z,518.3
2023-03-02T04:54:12.076Z,518.4
2023-03-02T04:55:13.891Z,518.7
2023-03-02T04:56:15.671Z,518.5
2023-03-02T04:57:17.495Z,518.8
2023-03-02T04:58:19.335Z,518.2
2023-03-02T04:59:21.199Z,518.3
2023-03-02T05:00:23.184Z,518.3
2023-03-02T05:01:24.993Z,518.1
2023-03-02T05:02:27.218Z,518.8
2023-03-02T05:03:29.000Z,518.4
2023-03-02T05:04:30.982Z,518.3
2023-03-02T05:05:33.111Z,518.4
2023-03-02T05:06:35.783Z,518.1
2023-03-02T05:07:37.726Z,518.1
2023-03-02T05:08:39.998Z,518.4
2023-03-02T05:09:42.357Z,518.1
2023-03-02T05:10:44.201Z,518.3
2023-03-02T05:11:46.041Z,518.3
2023-03-02T05:12:48.007Z,518
2023-03-02T05:13:50.363Z,518.2
2023-03-02T05:14:52.227Z,517.8
2023-03-02T05:15:54.315Z,518
2023-03-02T05:16:56.217Z,518.1
2023-03-02T05:17:58.181Z,518
2023-03-02T05:19:00.449Z,517.6
2023-03-02T05:20:02.278Z,518
2023-03-02T05:21:04.212Z,518
2023-03-02T05:22:06.096Z,517.9
2023-03-02T05:23:08.053Z,518.2
2023-03-02T05:24:09.894Z,517.7
2023-03-02T05:25:11.831Z,517.4
2023-03-02T05:26:13.798Z,517.5
2023-03-02T05:27:15.763Z,517.4
2023-03-02T05:28:17.725Z,517.4
2023-03-02T05:29:19.560Z,517.2
2023-03-02T05:30:21.814Z,517.2
2023-03-02T05:31:24.329Z,517
2023-03-02T05:32:26.690Z,517
2023-03-02T05:33:28.592Z,517.2
2023-03-02T05:34:30.451Z,516.9
2023-03-02T05:35:32.530Z,516.9
2023-03-02T05:36:36.356Z,516.7
2023-03-02T05:37:38.451Z,516.6
2023-03-02T05:38:40.290Z,516.5
2023-03-02T05:39:42.231Z,516.5
2023-03-02T05:40:44.108Z,516.9
2023-03-02T05:41:45.921Z,516.8
2023-03-02T05:42:47.856Z,517
2023-03-02T05:43:49.852Z,516.7
2023-03-02T05:44:51.719Z,516.6
2023-03-02T05:45:53.562Z,516.8
2023-03-02T05:46:55.842Z,516.7
2023-03-02T05:47:57.774Z,516.5
2023-03-02T05:48:59.733Z,516.5
2023-03-02T05:50:01.584Z,516.7
2023-03-02T05:51:04.146Z,516.8
2023-03-02T05:52:05.994Z,516.6
2023-03-02T05:53:07.942Z,516.4
2023-03-02T05:54:09.782Z,516.3
2023-03-02T05:55:11.652Z,515.9
2023-03-02T05:56:13.494Z,516
2023-03-02T05:57:15.367Z,515.8
2023-03-02T05:58:17.148Z,515.6
2023-03-02T05:59:19.035Z,515.6
2023-03-02T06:00:20.949Z,515.7
2023-03-02T06:01:23.135Z,515.5
2023-03-02T06:02:25.205Z,516
2023-03-02T06:03:27.534Z,516
2023-03-02T06:04:29.612Z,515.7
2023-03-02T06:05:31.457Z,515.5
2023-03-02T06:06:35.860Z,515.2
2023-03-02T06:07:37.995Z,515.5
2023-03-02T06:08:39.876Z,515.6
2023-03-02T06:09:41.715Z,515.5
2023-03-02T06:10:43.472Z,515.8
2023-03-02T06:11:45.232Z,515.3
2023-03-02T06:12:47.281Z,515.4
2023-03-02T06:13:49.450Z,515.3
2023-03-02T06:14:51.286Z,514.7
2023-03-02T06:15:53.142Z,514.7
2023-03-02T06:16:55.406Z,514.7
2023-03-02T06:17:57.687Z,514.2
2023-03-02T06:18:59.816Z,514.5
2023-03-02T06:20:01.785Z,514.8
2023-03-02T06:21:03.713Z,514.7
2023-03-02T06:22:05.668Z,514.5
2023-03-02T06:23:07.553Z,514.5
2023-03-02T06:24:09.476Z,514.5
2023-03-02T06:25:11.944Z,514.7
2023-03-02T06:26:13.892Z,514.4
2023-03-02T06:27:16.060Z,514.3
2023-03-02T06:28:17.834Z,514.5
2023-03-02T06:29:19.756Z,514.3
2023-03-02T06:30:21.595Z,513.7
2023-03-02T06:31:23.866Z,513.7
2023-03-02T06:32:25.992Z,513.8
2023-03-02T06:33:28.001Z,513.5
2023-03-02T06:34:29.927Z,513.7
2023-03-02T06:35:32.729Z,513.3
2023-03-02T06:36:36.442Z,513.7
2023-03-02T06:37:38.408Z,513.6
2023-03-02T06:38:40.305Z,513.7
2023-03-02T06:39:42.347Z,513.9
2023-03-02T06:40:44.190Z,514
2023-03-02T06:41:46.570Z,514.2
2023-03-02T06:42:48.623Z,514.2
2023-03-02T06:43:50.492Z,514.5
2023-03-02T06:44:52.327Z,514.3
2023-03-02T06:45:54.324Z,514.4
2023-03-02T06:46:56.216Z,514.1
2023-03-02T06:47:58.077Z,513.5
2023-03-02T06:49:00.068Z,513.4
2023-03-02T06:50:02.088Z,513.7
2023-03-02T06:51:03.928Z,513.6
2023-03-02T06:52:05.813Z,513.4
2023-03-02T06:53:07.806Z,513.5
2023-03-02T06:54:09.801Z,513.8
2023-03-02T06:55:11.640Z,513.5
2023-03-02T06:56:13.501Z,513.6
2023-03-02T06:57:15.358Z,513.7
2023-03-02T06:58:17.152Z,513.9
2023-03-02T06:59:19.098Z,513.8
2023-03-02T07:00:21.087Z,513.7
2023-03-02T07:01:23.317Z,513.6
2023-03-02T07:02:25.206Z,514.1
2023-03-02T07:03:27.332Z,513.9
2023-03-02T07:04:29.447Z,514.2
2023-03-02T07:05:31.306Z,514
2023-03-02T07:06:33.009Z,514
2023-03-02T07:07:34.864Z,513.9
2023-03-02T07:08:36.716Z,513.9
2023-03-02T07:09:38.571Z,513.6
2023-03-02T07:10:40.410Z,513.8
2023-03-02T07:11:42.070Z,513.9
2023-03-02T07:12:44.005Z,514
2023-03-02T07:13:46.381Z,513.8
2023-03-02T07:14:48.349Z,513.8
2023-03-02T07:15:50.385Z,513.6
2023-03-02T07:16:52.559Z,513.8
2023-03-02T07:17:54.665Z,513.7
2023-03-02T07:18:57.051Z,513.8
2023-03-02T07:19:58.997Z,513.7
2023-03-02T07:21:00.808Z,513.6
2023-03-02T07:22:03.116Z,513.3
2023-03-02T07:23:04.958Z,513.7
2023-03-02T07:24:06.804Z,513.7
2023-03-02T07:25:08.670Z,513.8
2023-03-02T07:26:10.427Z,513.9
2023-03-02T07:27:12.119Z,513.9
2023-03-02T07:28:13.909Z,513.6
2023-03-02T07:29:15.815Z,513.6
2023-03-02T07:30:17.718Z,513.4
2023-03-02T07:31:19.680Z,513.5
2023-03-02T07:32:22.396Z,513.6
2023-03-02T07:33:24.398Z,513.6
2023-03-02T07:34:26.230Z,513.7
2023-03-02T07:35:28.507Z,513.8
2023-03-02T07:36:30.457Z,513.7
2023-03-02T07:37:32.911Z,513.7
2023-03-02T07:38:34.770Z,513.9
2023-03-02T07:39:36.603Z,514
2023-03-02T07:40:38.394Z,513.5
2023-03-02T07:41:40.322Z,513.6
2023-03-02T07:42:42.171Z,513.7
2023-03-02T07:43:44.210Z,513.5
2023-03-02T07:44:46.167Z,513.3
2023-03-02T07:45:48.093Z,513.2
2023-03-02T07:46:50.316Z,513.3
2023-03-02T07:47:52.229Z,513.4
2023-03-02T07:48:54.212Z,513.2
2023-03-02T07:49:56.774Z,513.2
2023-03-02T07:50:58.631Z,513.4
2023-03-02T07:52:00.627Z,513.4
2023-03-02T07:53:02.763Z,513.1
2023-03-02T07:54:04.550Z,512.9
2023-03-02T07:55:06.335Z,513.2
2023-03-02T07:56:08.171Z,513.4
2023-03-02T07:57:10.008Z,513.5
2023-03-02T07:58:11.857Z,513.2
2023-03-02T07:59:13.558Z,513.2
2023-03-02T08:00:15.569Z,513.4
2023-03-02T08:01:17.348Z,513.6
2023-03-02T08:02:19.148Z,513.5
2023-03-02T08:03:21.000Z,513.5
2023-03-02T08:04:22.854Z,513.7
2023-03-02T08:05:24.737Z,514
2023-03-02T08:06:26.669Z,513.8
2023-03-02T08:07:28.716Z,513.8
2023-03-02T08:08:30.508Z,513.9
2023-03-02T08:09:32.415Z,514.1
2023-03-02T08:10:34.143Z,513.9
2023-03-02T08:11:36.630Z,514
2023-03-02T08:12:38.915Z,514.1
2023-03-02T08:13:40.741Z,514.1
2023-03-02T08:14:43.001Z,514.1
2023-03-02T08:15:44.948Z,513.6
2023-03-02T08:16:46.895Z,514.1
2023-03-02T08:17:48.751Z,514.2
2023-03-02T08:18:50.619Z,514.1
2023-03-02T08:19:53.040Z,514
2023-03-02T08:20:54.848Z,514.1
2023-03-02T08:21:56.788Z,514.2
2023-03-02T08:22:58.618Z,514.4
2023-03-02T08:24:00.746Z,514.8
2023-03-02T08:25:02.674Z,514.7
2023-03-02T08:26:04.546Z,514.6
2023-03-02T08:27:06.545Z,514.5
2023-03-02T08:28:08.390Z,514.4
2023-03-02T08:29:10.230Z,514.6
2023-03-02T08:30:12.087Z,514.7
2023-03-02T08:31:14.167Z,514.6
2023-03-02T08:32:16.565Z,514.7
2023-03-02T08:33:18.660Z,514.7
2023-03-02T08:34:20.403Z,514.5
2023-03-02T08:35:22.390Z,514.7
2023-03-02T08:36:24.402Z,514.7
2023-03-02T08:37:26.451Z,514.6
2023-03-02T08:38:28.419Z,514.6
2023-03-02T08:39:30.341Z,514.7
2023-03-02T08:40:32.234Z,514.7
2023-03-02T08:41:36.084Z,514.3
2023-03-02T08:42:38.080Z,514.6
2023-03-02T08:43:39.826Z,514.7
2023-03-02T08:44:42.085Z,514.6
2023-03-02T08:45:44.300Z,514.8
2023-03-02T08:46:46.501Z,514.8
2023-03-02T08:47:48.349Z,515
2023-03-02T08:48:50.298Z,514.5
2023-03-02T08:49:52.242Z,514.5
2023-03-02T08:50:54.059Z,515
2023-03-02T08:51:55.954Z,514.5
2023-03-02T08:52:57.931Z,514.5
2023-03-02T08:53:59.856Z,514.9
2023-03-02T08:55:05.485Z,514.5
2023-03-02T08:56:07.307Z,514.8
2023-03-02T08:57:09.300Z,514.5
2023-03-02T08:58:11.553Z,514.9
2023-03-02T08:59:13.830Z,514.9
2023-03-02T09:00:15.668Z,514.6
2023-03-02T09:01:17.720Z,515.3
2023-03-02T09:02:19.552Z,514.7
2023-03-02T09:03:21.413Z,515.1
2023-03-02T09:04:23.710Z,515.1
2023-03-02T09:05:25.525Z,515.2
2023-03-02T09:06:27.240Z,514.9
2023-03-02T09:07:29.029Z,514.9
2023-03-02T09:08:31.470Z,514.7
2023-03-02T09:09:33.287Z,514.8
2023-03-02T09:10:35.181Z,514.6
2023-03-02T09:11:37.138Z,514.8
2023-03-02T09:12:38.949Z,515.1
2023-03-02T09:13:40.844Z,514.8
2023-03-02T09:14:42.787Z,515
2023-03-02T09:15:47.283Z,515.1
2023-03-02T09:16:49.344Z,515.2
2023-03-02T09:17:51.094Z,515.3
2023-03-02T09:18:52.784Z,514.9
2023-03-02T09:19:54.595Z,514.8
2023-03-02T09:20:56.985Z,514.8
2023-03-02T09:21:58.826Z,514.7
2023-03-02T09:23:00.669Z,514.8
2023-03-02T09:24:02.666Z,515
2023-03-02T09:25:05.157Z,515.1
2023-03-02T09:26:07.080Z,515.1
2023-03-02T09:27:08.907Z,515.3
2023-03-02T09:28:10.595Z,515.2
2023-03-02T09:29:12.480Z,515
2023-03-02T09:30:14.537Z,515.1
2023-03-02T09:31:16.911Z,515.3
2023-03-02T09:32:19.262Z,515.3
2023-03-02T09:33:21.610Z,515.2
2023-03-02T09:34:23.274Z,515.7
2023-03-02T09:35:25.484Z,515.5
2023-03-02T09:36:27.358Z,515.3
2023-03-02T09:37:29.508Z,515.5
2023-03-02T09:38:31.814Z,515.6
2023-03-02T09:39:34.181Z,515.6
2023-03-02T09:40:36.006Z,515.6
2023-03-02T09:41:37.827Z,515.4
2023-03-02T09:42:45.136Z,515.5
2023-03-02T09:43:46.988Z,515.7
2023-03-02T09:44:49.759Z,516
2023-03-02T09:45:51.774Z,515.8
2023-03-02T09:46:53.755Z,515.9
2023-03-02T09:47:55.522Z,515.9
2023-03-02T09:48:57.319Z,515.5
2023-03-02T09:49:59.217Z,515.9
2023-03-02T09:51:01.149Z,516.1
2023-03-02T09:52:03.332Z,516.2
2023-03-02T09:53:05.053Z,516.4
2023-03-02T09:54:07.178Z,516.3
2023-03-02T09:55:09.215Z,516.3
2023-03-02T09:56:11.007Z,516.3
2023-03-02T09:57:12.879Z,516.2
2023-03-02T09:58:14.720Z,516.2
2023-03-02T09:59:16.636Z,516.5
2023-03-02T10:00:21.054Z,516.4
2023-03-02T10:01:22.885Z,516.6
2023-03-02T10:02:24.715Z,516.4
2023-03-02T10:03:26.775Z,516.2
2023-03-02T10:04:29.479Z,516.7
2023-03-02T10:05:31.919Z,517
2023-03-02T10:06:35.007Z,516.5
2023-03-02T10:07:36.843Z,516.7
2023-03-02T10:08:38.663Z,516.8
2023-03-02T10:09:40.911Z,516.8
2023-03-02T10:10:43.108Z,516.6
2023-03-02T10:11:45.535Z,517
2023-03-02T10:12:47.390Z,516.6
2023-03-02T10:13:49.708Z,516.6
2023-03-02T10:14:51.508Z,516.5
2023-03-02T10:15:53.762Z,516.1
2023-03-02T10:16:55.573Z,516.4
2023-03-02T10:17:57.416Z,516.3
2023-03-02T10:18:59.311Z,516.6
2023-03-02T10:20:01.259Z,516.4
2023-03-02T10:21:03.033Z,516.5
2023-03-02T10:22:07.719Z,517
2023-03-02T10:23:09.576Z,516.7
2023-03-02T10:24:11.422Z,516.9
2023-03-02T10:25:13.340Z,517
2023-03-02T10:26:15.328Z,516.9
2023-03-02T10:27:18.094Z,517.2
2023-03-02T10:28:19.950Z,517.1
2023-03-02T10:29:21.817Z,517.1
2023-03-02T10:30:23.747Z,517.3
2023-03-02T10:31:26.019Z,517.5
2023-03-02T10:32:28.288Z,517.3
2023-03-02T10:33:30.075Z,517.8
2023-03-02T10:34:32.073Z,517.6
2023-03-02T10:35:34.145Z,517.9
2023-03-02T10:36:37.792Z,517.6
2023-03-02T10:37:39.829Z,517.7
2023-03-02T10:38:41.577Z,517.7
2023-03-02T10:39:43.464Z,517.7
2023-03-02T10:40:45.220Z,518
2023-03-02T10:41:47.253Z,518.5
2023-03-02T10:42:49.133Z,518
2023-03-02T10:43:50.977Z,518.1
2023-03-02T10:44:52.837Z,518.6
2023-03-02T10:45:55.022Z,518.1
2023-03-02T10:46:57.098Z,518
2023-03-02T10:47:58.950Z,518.4
2023-03-02T10:49:00.842Z,518.4
2023-03-02T10:50:03.373Z,518.4
2023-03-02T10:51:05.190Z,518.2
2023-03-02T10:52:07.026Z,518.4
2023-03-02T10:53:11.994Z,518.6
2023-03-02T10:54:13.966Z,518.6
2023-03-02T10:55:15.843Z,519.1
2023-03-02T10:56:17.537Z,519.1
2023-03-02T10:57:19.386Z,519.1
2023-03-02T10:58:21.748Z,519.3
2023-03-02T10:59:23.496Z,519.5
2023-03-02T11:00:25.598Z,519.5
2023-03-02T11:01:27.678Z,519.1
2023-03-02T11:02:29.607Z,519.3
2023-03-02T11:03:31.552Z,519.1
2023-03-02T11:04:33.464Z,519.1
2023-03-02T11:05:35.277Z,519.4
2023-03-02T11:06:37.270Z,519.3
2023-03-02T11:07:39.255Z,519.8
2023-03-02T11:08:41.117Z,519.8
2023-03-02T11:09:43.149Z,520
2023-03-02T11:10:44.959Z,520
2023-03-02T11:11:47.140Z,520
2023-03-02T11:12:49.310Z,520.2
2023-03-02T11:13:51.173Z,520
2023-03-02T11:14:53.054Z,520.1
2023-03-02T11:15:55.131Z,520.3
2023-03-02T11:16:57.043Z,520.2
2023-03-02T11:17:58.986Z,520.2
2023-03-02T11:19:00.947Z,520.2
2023-03-02T11:20:02.806Z,520.5
2023-03-02T11:21:04.573Z,520.8
2023-03-02T11:22:06.406Z,520.4
2023-03-02T11:23:08.336Z,520.8
2023-03-02T11:24:11.326Z,520.4
2023-03-02T11:25:13.161Z,521.1
2023-03-02T11:26:15.002Z,521
2023-03-02T11:27:16.622Z,521.2
2023-03-02T11:28:18.646Z,521.7
2023-03-02T11:29:23.431Z,521.1
2023-03-02T11:30:25.310Z,521
2023-03-02T11:31:27.568Z,521.4
2023-03-02T11:32:29.754Z,521.4
2023-03-02T11:33:31.876Z,521.3
2023-03-02T11:34:33.585Z,521.9
2023-03-02T11:35:36.087Z,522.4
2023-03-02T11:36:38.055Z,522.3
2023-03-02T11:37:39.779Z,522.5
2023-03-02T11:38:41.663Z,522.2
2023-03-02T11:39:56.484Z,522.2
2023-03-02T11:40:58.643Z,522.4
2023-03-02T11:42:00.824Z,522.5
2023-03-02T11:43:02.656Z,522.5
2023-03-02T11:44:04.728Z,522.6
2023-03-02T11:45:06.522Z,522.9
2023-03-02T11:46:26.360Z,522.7
2023-03-02T11:47:28.460Z,522.5
2023-03-02T11:48:30.434Z,522.4
2023-03-02T11:49:32.305Z,522.4
2023-03-02T11:50:34.921Z,522.6
2023-03-02T11:59:01.630Z,522.9
2023-03-02T12:00:03.645Z,522.7
2023-03-02T12:01:05.324Z,522.5
2023-03-02T12:02:07.546Z,522.3
2023-03-02T12:03:09.642Z,522.6
2023-03-02T12:04:11.802Z,522.6
2023-03-02T12:05:14.212Z,522.4
2023-03-02T12:06:16.525Z,522.2
2023-03-02T12:07:18.503Z,522.2
2023-03-02T12:08:20.343Z,522.5
2023-03-02T12:09:22.413Z,522.5
2023-03-02T12:10:24.081Z,522.3
2023-03-02T12:11:25.816Z,522.3
2023-03-02T12:12:27.619Z,522.3
2023-03-02T12:13:29.475Z,522.3
2023-03-02T12:14:31.285Z,522.3
2023-03-02T12:15:33.209Z,522.1
2023-03-02T12:16:37.306Z,522.4
2023-03-02T12:17:39.332Z,522.3
2023-03-02T12:18:41.187Z,522.6
2023-03-02T12:19:42.985Z,522.8
2023-03-02T12:20:45.330Z,522.8
2023-03-02T12:21:47.144Z,522.8
2023-03-02T12:22:50.088Z,522.3
2023-03-02T12:23:52.073Z,522.4
2023-03-02T12:24:53.922Z,522.8
2023-03-02T12:25:55.974Z,522.6
2023-03-02T12:26:57.801Z,522.7
2023-03-02T12:27:59.721Z,522.8
2023-03-02T12:29:01.534Z,522.7
2023-03-02T12:30:03.528Z,523
2023-03-02T12:31:05.473Z,523.2
2023-03-02T12:32:07.789Z,522.8
2023-03-02T12:33:09.845Z,523
2023-03-02T12:34:11.592Z,523
2023-03-02T12:35:13.369Z,522.9
2023-03-02T12:36:15.211Z,523.1
2023-03-02T12:37:17.156Z,523.1
2023-03-02T12:38:19.767Z,523.2
2023-03-02T12:39:22.293Z,523.2
2023-03-02T12:40:24.282Z,523.1
2023-03-02T12:41:26.141Z,522.9
2023-03-02T12:42:28.044Z,523.5
2023-03-02T12:43:29.889Z,523.1
2023-03-02T12:44:31.713Z,522.9
2023-03-02T12:45:33.974Z,523
2023-03-02T12:46:39.169Z,522.9
2023-03-02T12:47:41.806Z,522.8
2023-03-02T12:48:45.360Z,522.9
2023-03-02T12:50:05.887Z,523
2023-03-02T12:51:07.775Z,522.7
2023-03-02T12:52:10.109Z,523.3
2023-03-02T12:53:12.140Z,523.3
2023-03-02T12:54:13.989Z,523
2023-03-02T12:55:15.794Z,523.3
2023-03-02T12:56:17.913Z,523.4
2023-03-02T12:57:19.842Z,523.7
2023-03-02T12:58:21.913Z,523.1
2023-03-02T12:59:24.158Z,523.8
2023-03-02T13:00:26.011Z,523.7
2023-03-02T13:01:28.056Z,523.6
2023-03-02T13:02:30.514Z,523.7
2023-03-02T13:03:32.358Z,523.9
2023-03-02T13:04:34.137Z,523.8
2023-03-02T13:05:36.070Z,524
2023-03-02T13:06:37.817Z,524.3
2023-03-02T13:07:39.961Z,524.3
2023-03-02T13:08:42.171Z,524
2023-03-02T13:09:57.663Z,524.3
2023-03-02T13:10:59.671Z,524
2023-03-02T13:12:01.574Z,524.2
2023-03-02T13:13:03.714Z,524.2
2023-03-02T13:14:05.617Z,524
2023-03-02T13:15:07.489Z,524.5
2023-03-02T13:16:09.418Z,524.6
2023-03-02T13:17:11.161Z,525
2023-03-02T13:18:13.053Z,524.8
2023-03-02T13:19:14.885Z,524.9
2023-03-02T13:20:16.724Z,525
2023-03-02T13:21:18.568Z,524.7
2023-03-02T13:22:20.654Z,525.2
2023-03-02T13:23:22.578Z,525.2
2023-03-02T13:24:24.574Z,525.1
2023-03-02T13:25:26.480Z,525.5
2023-03-02T13:26:28.341Z,525.6
2023-03-02T13:27:30.759Z,525.5
2023-03-02T13:28:32.637Z,526.1
2023-03-02T13:29:35.187Z,526.1
2023-03-02T13:30:37.710Z,526.1
2023-03-02T13:31:39.658Z,526.8
2023-03-02T13:32:41.487Z,526.6